sensor_id;sensor_type;location;lat;lon;timestamp;P1;durP1;ratioP1;P2;durP2;ratioP2
49840;SDS011;35738;49.890;5.930;2022-11-15T00:00:55;227.50;;;20.95;;
49840;SDS011;35738;49.890;5.930;2022-11-15T00:03:23;191.77;;;18.00;;
49840;SDS011;35738;49.890;5.930;2022-11-15T00:05:54;199.00;;;19.27;;
49840;SDS011;35738;49.890;5.930;2022-11-15T00:08:20;168.70;;;17.48;;
49840;SDS011;35738;49.890;5.930;2022-11-15T00:10:54;101.47;;;12.90;;
49840;SDS011;35738;49.890;5.930;2022-11-15T00:13:25;174.35;;;17.42;;
49840;SDS011;35738;49.890;5.930;2022-11-15T00:15:52;165.85;;;16.30;;
49840;SDS011;35738;49.890;5.930;2022-11-15T00:18:18;181.85;;;18.17;;
49840;SDS011;35738;49.890;5.930;2022-11-15T00:20:45;164.10;;;15.25;;
49840;SDS011;35738;49.890;5.930;2022-11-15T00:23:12;295.55;;;21.33;;
49840;SDS011;35738;49.890;5.930;2022-11-15T00:25:38;252.93;;;19.08;;
49840;SDS011;35738;49.890;5.930;2022-11-15T00:28:05;260.35;;;17.33;;
49840;SDS011;35738;49.890;5.930;2022-11-15T00:30:32;175.07;;;15.63;;
49840;SDS011;35738;49.890;5.930;2022-11-15T00:33:02;207.38;;;15.65;;
49840;SDS011;35738;49.890;5.930;2022-11-15T00:35:32;219.35;;;16.95;;
49840;SDS011;35738;49.890;5.930;2022-11-15T00:38:00;242.05;;;17.60;;
49840;SDS011;35738;49.890;5.930;2022-11-15T00:40:28;209.45;;;15.35;;
49840;SDS011;35738;49.890;5.930;2022-11-15T00:42:55;230.23;;;16.48;;
49840;SDS011;35738;49.890;5.930;2022-11-15T00:45:22;164.73;;;14.68;;
49840;SDS011;35738;49.890;5.930;2022-11-15T00:47:49;196.52;;;15.57;;
49840;SDS011;35738;49.890;5.930;2022-11-15T00:50:16;274.88;;;18.60;;
49840;SDS011;35738;49.890;5.930;2022-11-15T00:52:43;214.65;;;17.88;;
49840;SDS011;35738;49.890;5.930;2022-11-15T00:55:13;219.25;;;18.23;;
49840;SDS011;35738;49.890;5.930;2022-11-15T00:57:42;208.95;;;18.58;;
49840;SDS011;35738;49.890;5.930;2022-11-15T01:00:09;202.20;;;16.77;;
49840;SDS011;35738;49.890;5.930;2022-11-15T01:02:37;104.18;;;13.73;;
49840;SDS011;35738;49.890;5.930;2022-11-15T01:05:03;130.80;;;15.80;;
49840;SDS011;35738;49.890;5.930;2022-11-15T01:07:31;56.78;;;11.13;;
49840;SDS011;35738;49.890;5.930;2022-11-15T01:09:58;17.63;;;8.40;;
49840;SDS011;35738;49.890;5.930;2022-11-15T01:12:24;13.50;;;8.07;;
49840;SDS011;35738;49.890;5.930;2022-11-15T01:14:51;11.77;;;7.22;;
49840;SDS011;35738;49.890;5.930;2022-11-15T01:17:17;11.15;;;7.30;;
49840;SDS011;35738;49.890;5.930;2022-11-15T01:19:44;13.68;;;7.55;;
49840;SDS011;35738;49.890;5.930;2022-11-15T01:22:11;12.27;;;6.47;;
49840;SDS011;35738;49.890;5.930;2022-11-15T01:24:37;11.13;;;7.10;;
49840;SDS011;35738;49.890;5.930;2022-11-15T01:27:04;13.57;;;6.70;;
49840;SDS011;35738;49.890;5.930;2022-11-15T01:29:31;10.43;;;6.55;;
49840;SDS011;35738;49.890;5.930;2022-11-15T01:31:57;10.73;;;6.50;;
49840;SDS011;35738;49.890;5.930;2022-11-15T01:34:24;10.60;;;7.05;;
49840;SDS011;35738;49.890;5.930;2022-11-15T01:36:51;13.75;;;7.22;;
49840;SDS011;35738;49.890;5.930;2022-11-15T01:39:17;10.77;;;6.80;;
49840;SDS011;35738;49.890;5.930;2022-11-15T01:41:44;8.43;;;5.85;;
49840;SDS011;35738;49.890;5.930;2022-11-15T01:52:24;8.60;;;4.57;;
49840;SDS011;35738;49.890;5.930;2022-11-15T01:54:54;4.55;;;3.88;;
49840;SDS011;35738;49.890;5.930;2022-11-15T01:57:27;5.55;;;4.43;;
49840;SDS011;35738;49.890;5.930;2022-11-15T01:59:54;9.82;;;4.65;;
49840;SDS011;35738;49.890;5.930;2022-11-15T02:02:22;7.15;;;4.95;;
49840;SDS011;35738;49.890;5.930;2022-11-15T02:04:48;11.38;;;5.45;;
49840;SDS011;35738;49.890;5.930;2022-11-15T02:10:17;7.85;;;6.07;;
49840;SDS011;35738;49.890;5.930;2022-11-15T02:12:46;8.88;;;6.15;;
49840;SDS011;35738;49.890;5.930;2022-11-15T02:15:14;10.60;;;7.07;;
49840;SDS011;35738;49.890;5.930;2022-11-15T02:27:04;8.02;;;6.50;;
49840;SDS011;35738;49.890;5.930;2022-11-15T02:30:00;9.82;;;6.70;;
49840;SDS011;35738;49.890;5.930;2022-11-15T02:38:34;11.52;;;7.85;;
49840;SDS011;35738;49.890;5.930;2022-11-15T02:41:13;12.80;;;7.88;;
49840;SDS011;35738;49.890;5.930;2022-11-15T02:43:54;8.70;;;7.03;;
49840;SDS011;35738;49.890;5.930;2022-11-15T02:46:31;10.52;;;7.45;;
49840;SDS011;35738;49.890;5.930;2022-11-15T02:49:21;11.30;;;7.63;;
49840;SDS011;35738;49.890;5.930;2022-11-15T02:51:50;12.20;;;8.13;;
49840;SDS011;35738;49.890;5.930;2022-11-15T02:54:22;9.63;;;7.28;;
49840;SDS011;35738;49.890;5.930;2022-11-15T02:56:52;11.75;;;8.30;;
49840;SDS011;35738;49.890;5.930;2022-11-15T02:59:27;13.82;;;8.30;;
49840;SDS011;35738;49.890;5.930;2022-11-15T03:02:19;10.00;;;7.10;;
49840;SDS011;35738;49.890;5.930;2022-11-15T03:18:50;7.50;;;5.40;;
49840;SDS011;35738;49.890;5.930;2022-11-15T03:21:21;5.97;;;5.22;;
49840;SDS011;35738;49.890;5.930;2022-11-15T03:23:50;8.50;;;4.97;;
49840;SDS011;35738;49.890;5.930;2022-11-15T03:26:19;6.10;;;5.03;;
49840;SDS011;35738;49.890;5.930;2022-11-15T03:28:53;5.13;;;4.65;;
49840;SDS011;35738;49.890;5.930;2022-11-15T03:31:24;8.95;;;5.28;;
49840;SDS011;35738;49.890;5.930;2022-11-15T03:36:58;8.90;;;6.13;;
49840;SDS011;35738;49.890;5.930;2022-11-15T03:39:24;9.18;;;6.72;;
49840;SDS011;35738;49.890;5.930;2022-11-15T03:50:02;7.85;;;6.15;;
49840;SDS011;35738;49.890;5.930;2022-11-15T03:52:33;8.55;;;6.80;;
49840;SDS011;35738;49.890;5.930;2022-11-15T03:55:01;8.65;;;6.88;;
49840;SDS011;35738;49.890;5.930;2022-11-15T03:57:29;8.52;;;6.72;;
49840;SDS011;35738;49.890;5.930;2022-11-15T03:59:56;10.52;;;7.20;;
49840;SDS011;35738;49.890;5.930;2022-11-15T04:02:23;12.70;;;7.18;;
49840;SDS011;35738;49.890;5.930;2022-11-15T04:04:49;9.70;;;6.68;;
49840;SDS011;35738;49.890;5.930;2022-11-15T04:07:16;7.22;;;6.45;;
49840;SDS011;35738;49.890;5.930;2022-11-15T04:09:43;6.88;;;6.15;;
49840;SDS011;35738;49.890;5.930;2022-11-15T04:12:29;8.60;;;6.35;;
49840;SDS011;35738;49.890;5.930;2022-11-15T04:14:57;8.73;;;6.47;;
49840;SDS011;35738;49.890;5.930;2022-11-15T04:17:35;7.32;;;6.45;;
49840;SDS011;35738;49.890;5.930;2022-11-15T04:20:23;10.00;;;6.95;;
49840;SDS011;35738;49.890;5.930;2022-11-15T04:23:09;9.25;;;6.90;;
49840;SDS011;35738;49.890;5.930;2022-11-15T04:25:57;8.85;;;6.90;;
49840;SDS011;35738;49.890;5.930;2022-11-15T04:28:29;8.80;;;6.57;;
49840;SDS011;35738;49.890;5.930;2022-11-15T04:30:56;9.63;;;6.55;;
49840;SDS011;35738;49.890;5.930;2022-11-15T04:33:23;9.02;;;6.50;;
49840;SDS011;35738;49.890;5.930;2022-11-15T04:35:49;7.45;;;5.97;;
49840;SDS011;35738;49.890;5.930;2022-11-15T04:38:35;6.70;;;5.57;;
49840;SDS011;35738;49.890;5.930;2022-11-15T04:41:02;10.07;;;6.43;;
49840;SDS011;35738;49.890;5.930;2022-11-15T04:43:29;8.07;;;5.85;;
49840;SDS011;35738;49.890;5.930;2022-11-15T04:45:56;7.35;;;5.78;;
49840;SDS011;35738;49.890;5.930;2022-11-15T04:48:23;5.65;;;5.03;;
49840;SDS011;35738;49.890;5.930;2022-11-15T04:50:50;5.78;;;4.63;;
49840;SDS011;35738;49.890;5.930;2022-11-15T04:53:16;8.25;;;5.00;;
49840;SDS011;35738;49.890;5.930;2022-11-15T04:55:46;6.55;;;4.40;;
49840;SDS011;35738;49.890;5.930;2022-11-15T04:58:13;6.38;;;4.47;;
49840;SDS011;35738;49.890;5.930;2022-11-15T05:00:40;5.10;;;4.30;;
49840;SDS011;35738;49.890;5.930;2022-11-15T05:03:08;7.18;;;4.30;;
49840;SDS011;35738;49.890;5.930;2022-11-15T05:05:54;7.10;;;3.90;;
49840;SDS011;35738;49.890;5.930;2022-11-15T05:08:20;4.57;;;4.10;;
49840;SDS011;35738;49.890;5.930;2022-11-15T05:10:47;5.90;;;3.92;;
49840;SDS011;35738;49.890;5.930;2022-11-15T05:13:14;5.63;;;4.13;;
49840;SDS011;35738;49.890;5.930;2022-11-15T05:15:41;7.22;;;4.53;;
49840;SDS011;35738;49.890;5.930;2022-11-15T05:18:08;7.15;;;4.70;;
49840;SDS011;35738;49.890;5.930;2022-11-15T05:20:34;6.88;;;4.97;;
49840;SDS011;35738;49.890;5.930;2022-11-15T05:23:01;7.75;;;5.00;;
49840;SDS011;35738;49.890;5.930;2022-11-15T05:25:28;7.00;;;4.50;;
49840;SDS011;35738;49.890;5.930;2022-11-15T05:27:55;4.93;;;4.43;;
49840;SDS011;35738;49.890;5.930;2022-11-15T05:30:21;6.47;;;4.50;;
49840;SDS011;35738;49.890;5.930;2022-11-15T05:32:48;5.40;;;4.25;;
49840;SDS011;35738;49.890;5.930;2022-11-15T05:35:22;7.57;;;4.10;;
49840;SDS011;35738;49.890;5.930;2022-11-15T05:37:57;6.20;;;3.70;;
49840;SDS011;35738;49.890;5.930;2022-11-15T05:40:24;6.15;;;3.47;;
49840;SDS011;35738;49.890;5.930;2022-11-15T05:42:51;5.18;;;4.13;;
49840;SDS011;35738;49.890;5.930;2022-11-15T05:45:18;5.63;;;3.92;;
49840;SDS011;35738;49.890;5.930;2022-11-15T05:47:52;4.85;;;3.95;;
49840;SDS011;35738;49.890;5.930;2022-11-15T05:50:22;5.32;;;3.85;;
49840;SDS011;35738;49.890;5.930;2022-11-15T05:52:49;7.22;;;3.70;;
49840;SDS011;35738;49.890;5.930;2022-11-15T05:55:16;5.47;;;3.50;;
49840;SDS011;35738;49.890;5.930;2022-11-15T05:57:44;5.80;;;3.20;;
49840;SDS011;35738;49.890;5.930;2022-11-15T06:00:11;7.22;;;3.70;;
49840;SDS011;35738;49.890;5.930;2022-11-15T06:02:38;3.40;;;3.10;;
49840;SDS011;35738;49.890;5.930;2022-11-15T06:05:05;4.45;;;3.20;;
49840;SDS011;35738;49.890;5.930;2022-11-15T06:07:31;7.28;;;3.55;;
49840;SDS011;35738;49.890;5.930;2022-11-15T06:09:58;7.45;;;3.92;;
49840;SDS011;35738;49.890;5.930;2022-11-15T06:12:25;6.90;;;3.97;;
49840;SDS011;35738;49.890;5.930;2022-11-15T06:14:51;9.10;;;4.18;;
49840;SDS011;35738;49.890;5.930;2022-11-15T06:17:18;6.97;;;3.75;;
49840;SDS011;35738;49.890;5.930;2022-11-15T06:19:44;7.13;;;4.15;;
49840;SDS011;35738;49.890;5.930;2022-11-15T06:22:11;9.40;;;4.90;;
49840;SDS011;35738;49.890;5.930;2022-11-15T06:24:38;9.52;;;5.10;;
49840;SDS011;35738;49.890;5.930;2022-11-15T06:27:04;10.02;;;5.22;;
49840;SDS011;35738;49.890;5.930;2022-11-15T06:29:31;8.50;;;4.80;;
49840;SDS011;35738;49.890;5.930;2022-11-15T06:31:57;6.03;;;3.70;;
49840;SDS011;35738;49.890;5.930;2022-11-15T06:34:24;7.65;;;3.50;;
49840;SDS011;35738;49.890;5.930;2022-11-15T06:36:50;5.43;;;3.83;;
49840;SDS011;35738;49.890;5.930;2022-11-15T06:39:17;3.97;;;3.58;;
49840;SDS011;35738;49.890;5.930;2022-11-15T06:41:43;5.00;;;3.50;;
49840;SDS011;35738;49.890;5.930;2022-11-15T06:44:10;9.00;;;4.13;;
49840;SDS011;35738;49.890;5.930;2022-11-15T06:46:37;11.65;;;3.75;;
49840;SDS011;35738;49.890;5.930;2022-11-15T06:49:03;6.47;;;3.50;;
49840;SDS011;35738;49.890;5.930;2022-11-15T06:51:35;6.18;;;3.28;;
49840;SDS011;35738;49.890;5.930;2022-11-15T06:54:01;8.60;;;3.78;;
49840;SDS011;35738;49.890;5.930;2022-11-15T06:56:28;6.75;;;3.50;;
49840;SDS011;35738;49.890;5.930;2022-11-15T06:58:55;9.52;;;3.33;;
49840;SDS011;35738;49.890;5.930;2022-11-15T07:01:21;7.47;;;3.22;;
49840;SDS011;35738;49.890;5.930;2022-11-15T07:03:48;5.10;;;3.50;;
49840;SDS011;35738;49.890;5.930;2022-11-15T07:06:15;7.38;;;3.92;;
49840;SDS011;35738;49.890;5.930;2022-11-15T07:08:41;8.27;;;3.95;;
49840;SDS011;35738;49.890;5.930;2022-11-15T07:11:08;7.03;;;3.45;;
49840;SDS011;35738;49.890;5.930;2022-11-15T07:13:35;7.45;;;3.28;;
49840;SDS011;35738;49.890;5.930;2022-11-15T07:16:04;7.38;;;3.95;;
49840;SDS011;35738;49.890;5.930;2022-11-15T07:18:35;6.07;;;4.10;;
49840;SDS011;35738;49.890;5.930;2022-11-15T07:21:06;11.68;;;4.10;;
49840;SDS011;35738;49.890;5.930;2022-11-15T07:23:38;6.57;;;3.40;;
49840;SDS011;35738;49.890;5.930;2022-11-15T07:26:05;6.43;;;3.70;;
49840;SDS011;35738;49.890;5.930;2022-11-15T07:28:33;9.35;;;4.00;;
49840;SDS011;35738;49.890;5.930;2022-11-15T07:31:04;7.13;;;4.03;;
49840;SDS011;35738;49.890;5.930;2022-11-15T07:33:32;11.52;;;3.78;;
49840;SDS011;35738;49.890;5.930;2022-11-15T07:36:00;9.23;;;4.00;;
49840;SDS011;35738;49.890;5.930;2022-11-15T07:38:30;7.13;;;4.05;;
49840;SDS011;35738;49.890;5.930;2022-11-15T07:40:58;10.45;;;3.83;;
49840;SDS011;35738;49.890;5.930;2022-11-15T07:43:26;5.80;;;4.13;;
49840;SDS011;35738;49.890;5.930;2022-11-15T07:45:54;8.50;;;4.30;;
49840;SDS011;35738;49.890;5.930;2022-11-15T07:48:24;8.05;;;3.70;;
49840;SDS011;35738;49.890;5.930;2022-11-15T07:51:05;8.05;;;4.38;;
49840;SDS011;35738;49.890;5.930;2022-11-15T07:53:38;6.68;;;3.70;;
49840;SDS011;35738;49.890;5.930;2022-11-15T07:56:06;5.80;;;3.88;;
49840;SDS011;35738;49.890;5.930;2022-11-15T07:58:33;6.50;;;3.95;;
49840;SDS011;35738;49.890;5.930;2022-11-15T08:01:06;8.85;;;3.55;;
49840;SDS011;35738;49.890;5.930;2022-11-15T08:03:35;8.00;;;3.13;;
49840;SDS011;35738;49.890;5.930;2022-11-15T08:06:03;6.75;;;2.85;;
49840;SDS011;35738;49.890;5.930;2022-11-15T08:08:29;6.35;;;2.92;;
49840;SDS011;35738;49.890;5.930;2022-11-15T08:10:59;3.78;;;2.92;;
49840;SDS011;35738;49.890;5.930;2022-11-15T08:13:26;4.20;;;2.80;;
49840;SDS011;35738;49.890;5.930;2022-11-15T08:15:58;6.50;;;2.97;;
49840;SDS011;35738;49.890;5.930;2022-11-15T08:18:25;7.43;;;3.50;;
49840;SDS011;35738;49.890;5.930;2022-11-15T08:20:52;9.98;;;3.95;;
49840;SDS011;35738;49.890;5.930;2022-11-15T08:23:18;13.02;;;4.75;;
49840;SDS011;35738;49.890;5.930;2022-11-15T08:25:45;7.78;;;3.60;;
49840;SDS011;35738;49.890;5.930;2022-11-15T08:28:11;8.55;;;4.00;;
49840;SDS011;35738;49.890;5.930;2022-11-15T08:30:38;10.88;;;4.57;;
49840;SDS011;35738;49.890;5.930;2022-11-15T08:33:12;6.25;;;4.10;;
49840;SDS011;35738;49.890;5.930;2022-11-15T08:35:40;10.45;;;3.90;;
49840;SDS011;35738;49.890;5.930;2022-11-15T08:38:08;6.93;;;3.00;;
49840;SDS011;35738;49.890;5.930;2022-11-15T08:40:35;11.48;;;4.32;;
49840;SDS011;35738;49.890;5.930;2022-11-15T08:43:02;11.40;;;3.20;;
49840;SDS011;35738;49.890;5.930;2022-11-15T08:45:30;6.82;;;3.70;;
49840;SDS011;35738;49.890;5.930;2022-11-15T08:47:57;11.35;;;4.45;;
49840;SDS011;35738;49.890;5.930;2022-11-15T08:50:24;11.88;;;5.40;;
49840;SDS011;35738;49.890;5.930;2022-11-15T08:52:50;6.53;;;4.43;;
49840;SDS011;35738;49.890;5.930;2022-11-15T08:55:17;7.35;;;4.70;;
49840;SDS011;35738;49.890;5.930;2022-11-15T08:57:44;7.30;;;4.90;;
49840;SDS011;35738;49.890;5.930;2022-11-15T09:00:11;10.15;;;5.10;;
49840;SDS011;35738;49.890;5.930;2022-11-15T09:02:39;10.50;;;6.03;;
49840;SDS011;35738;49.890;5.930;2022-11-15T09:05:07;7.72;;;4.88;;
49840;SDS011;35738;49.890;5.930;2022-11-15T09:07:34;6.82;;;4.47;;
49840;SDS011;35738;49.890;5.930;2022-11-15T09:10:01;6.72;;;4.20;;
49840;SDS011;35738;49.890;5.930;2022-11-15T09:12:27;6.75;;;4.72;;
49840;SDS011;35738;49.890;5.930;2022-11-15T09:14:54;11.18;;;4.70;;
49840;SDS011;35738;49.890;5.930;2022-11-15T09:17:20;5.97;;;4.45;;
49840;SDS011;35738;49.890;5.930;2022-11-15T09:19:50;9.98;;;5.30;;
49840;SDS011;35738;49.890;5.930;2022-11-15T09:22:17;5.75;;;5.07;;
49840;SDS011;35738;49.890;5.930;2022-11-15T09:24:44;7.50;;;5.50;;
49840;SDS011;35738;49.890;5.930;2022-11-15T09:27:10;9.40;;;5.82;;
49840;SDS011;35738;49.890;5.930;2022-11-15T09:29:37;11.07;;;6.35;;
49840;SDS011;35738;49.890;5.930;2022-11-15T09:32:04;10.68;;;5.78;;
49840;SDS011;35738;49.890;5.930;2022-11-15T09:34:31;9.02;;;6.20;;
49840;SDS011;35738;49.890;5.930;2022-11-15T09:36:58;12.10;;;6.85;;
49840;SDS011;35738;49.890;5.930;2022-11-15T09:39:24;9.88;;;6.70;;
49840;SDS011;35738;49.890;5.930;2022-11-15T09:41:55;10.27;;;6.43;;
49840;SDS011;35738;49.890;5.930;2022-11-15T09:49:51;13.02;;;10.32;;
49840;SDS011;35738;49.890;5.930;2022-11-15T09:52:23;11.82;;;9.43;;
49840;SDS011;35738;49.890;5.930;2022-11-15T09:54:51;12.43;;;8.40;;
49840;SDS011;35738;49.890;5.930;2022-11-15T10:00:01;13.32;;;7.60;;
49840;SDS011;35738;49.890;5.930;2022-11-15T10:05:24;8.30;;;5.80;;
49840;SDS011;35738;49.890;5.930;2022-11-15T10:11:00;8.50;;;6.20;;
49840;SDS011;35738;49.890;5.930;2022-11-15T10:13:50;10.90;;;6.35;;
49840;SDS011;35738;49.890;5.930;2022-11-15T10:19:10;9.20;;;6.57;;
49840;SDS011;35738;49.890;5.930;2022-11-15T10:24:42;10.20;;;7.65;;
49840;SDS011;35738;49.890;5.930;2022-11-15T10:27:14;11.13;;;8.13;;
49840;SDS011;35738;49.890;5.930;2022-11-15T10:29:51;10.65;;;7.97;;
49840;SDS011;35738;49.890;5.930;2022-11-15T10:32:19;11.50;;;8.48;;
49840;SDS011;35738;49.890;5.930;2022-11-15T10:34:48;13.25;;;9.30;;
49840;SDS011;35738;49.890;5.930;2022-11-15T10:37:26;12.75;;;9.82;;
49840;SDS011;35738;49.890;5.930;2022-11-15T10:40:05;14.10;;;9.80;;
49840;SDS011;35738;49.890;5.930;2022-11-15T10:42:40;14.73;;;9.60;;
49840;SDS011;35738;49.890;5.930;2022-11-15T10:48:42;11.38;;;9.15;;
49840;SDS011;35738;49.890;5.930;2022-11-15T10:50:44;14.40;;;9.05;;
49840;SDS011;35738;49.890;5.930;2022-11-15T10:55:49;13.68;;;8.73;;
49840;SDS011;35738;49.890;5.930;2022-11-15T11:01:13;10.15;;;8.90;;
49840;SDS011;35738;49.890;5.930;2022-11-15T11:03:42;11.35;;;9.10;;
49840;SDS011;35738;49.890;5.930;2022-11-15T11:06:14;13.23;;;9.20;;
49840;SDS011;35738;49.890;5.930;2022-11-15T11:08:59;12.85;;;9.10;;
49840;SDS011;35738;49.890;5.930;2022-11-15T11:14:21;13.50;;;9.90;;
49840;SDS011;35738;49.890;5.930;2022-11-15T11:20:07;14.68;;;10.07;;
49840;SDS011;35738;49.890;5.930;2022-11-15T11:28:54;15.88;;;10.32;;
49840;SDS011;35738;49.890;5.930;2022-11-15T11:37:07;14.50;;;11.48;;
49840;SDS011;35738;49.890;5.930;2022-11-15T11:42:39;12.52;;;10.30;;
49840;SDS011;35738;49.890;5.930;2022-11-15T11:48:13;15.30;;;10.88;;
49840;SDS011;35738;49.890;5.930;2022-11-15T11:50:46;18.17;;;11.40;;
49840;SDS011;35738;49.890;5.930;2022-11-15T11:53:14;18.80;;;11.32;;
49840;SDS011;35738;49.890;5.930;2022-11-15T11:55:58;15.73;;;10.82;;
49840;SDS011;35738;49.890;5.930;2022-11-15T11:58:34;14.32;;;10.82;;
49840;SDS011;35738;49.890;5.930;2022-11-15T12:03:40;18.08;;;11.05;;
49840;SDS011;35738;49.890;5.930;2022-11-15T12:08:52;16.05;;;10.75;;
49840;SDS011;35738;49.890;5.930;2022-11-15T12:11:29;14.77;;;10.25;;
49840;SDS011;35738;49.890;5.930;2022-11-15T12:14:34;13.15;;;9.77;;
49840;SDS011;35738;49.890;5.930;2022-11-15T12:17:09;15.93;;;10.77;;
49840;SDS011;35738;49.890;5.930;2022-11-15T12:19:38;13.50;;;10.50;;
49840;SDS011;35738;49.890;5.930;2022-11-15T12:24:57;14.38;;;9.88;;
49840;SDS011;35738;49.890;5.930;2022-11-15T12:31:16;13.07;;;10.52;;
49840;SDS011;35738;49.890;5.930;2022-11-15T12:33:37;13.45;;;10.20;;
49840;SDS011;35738;49.890;5.930;2022-11-15T12:41:27;12.63;;;9.02;;
49840;SDS011;35738;49.890;5.930;2022-11-15T12:43:54;9.50;;;7.82;;
49840;SDS011;35738;49.890;5.930;2022-11-15T12:46:23;11.23;;;9.05;;
49840;SDS011;35738;49.890;5.930;2022-11-15T12:49:41;12.52;;;8.73;;
49840;SDS011;35738;49.890;5.930;2022-11-15T13:02:25;10.15;;;7.72;;
49840;SDS011;35738;49.890;5.930;2022-11-15T13:17:44;9.02;;;7.78;;
49840;SDS011;35738;49.890;5.930;2022-11-15T13:22:42;9.85;;;7.72;;
49840;SDS011;35738;49.890;5.930;2022-11-15T13:25:19;10.48;;;7.78;;
49840;SDS011;35738;49.890;5.930;2022-11-15T13:27:53;9.55;;;7.20;;
49840;SDS011;35738;49.890;5.930;2022-11-15T13:30:31;11.32;;;7.72;;
49840;SDS011;35738;49.890;5.930;2022-11-15T13:32:59;10.90;;;8.32;;
49840;SDS011;35738;49.890;5.930;2022-11-15T13:35:36;9.43;;;7.25;;
49840;SDS011;35738;49.890;5.930;2022-11-15T13:38:06;12.80;;;9.63;;
49840;SDS011;35738;49.890;5.930;2022-11-15T13:40:43;12.63;;;8.73;;
49840;SDS011;35738;49.890;5.930;2022-11-15T13:48:39;8.02;;;6.68;;
49840;SDS011;35738;49.890;5.930;2022-11-15T13:51:53;7.55;;;6.55;;
49840;SDS011;35738;49.890;5.930;2022-11-15T13:57:40;10.23;;;7.28;;
49840;SDS011;35738;49.890;5.930;2022-11-15T13:59:52;9.68;;;7.05;;
49840;SDS011;35738;49.890;5.930;2022-11-15T14:02:27;10.40;;;6.57;;
49840;SDS011;35738;49.890;5.930;2022-11-15T14:05:00;8.55;;;6.70;;
49840;SDS011;35738;49.890;5.930;2022-11-15T14:07:40;8.05;;;7.25;;
49840;SDS011;35738;49.890;5.930;2022-11-15T14:12:57;7.93;;;7.10;;
49840;SDS011;35738;49.890;5.930;2022-11-15T14:17:53;8.63;;;7.43;;
49840;SDS011;35738;49.890;5.930;2022-11-15T14:22:53;8.02;;;7.18;;
49840;SDS011;35738;49.890;5.930;2022-11-15T14:25:23;8.50;;;7.03;;
49840;SDS011;35738;49.890;5.930;2022-11-15T14:28:11;7.78;;;6.30;;
49840;SDS011;35738;49.890;5.930;2022-11-15T14:30:38;7.88;;;6.75;;
49840;SDS011;35738;49.890;5.930;2022-11-15T14:33:19;7.63;;;6.90;;
49840;SDS011;35738;49.890;5.930;2022-11-15T14:35:50;7.53;;;6.82;;
49840;SDS011;35738;49.890;5.930;2022-11-15T14:38:18;7.68;;;6.88;;
49840;SDS011;35738;49.890;5.930;2022-11-15T14:40:45;11.90;;;8.18;;
49840;SDS011;35738;49.890;5.930;2022-11-15T14:43:12;8.88;;;7.97;;
49840;SDS011;35738;49.890;5.930;2022-11-15T14:45:39;9.93;;;7.53;;
49840;SDS011;35738;49.890;5.930;2022-11-15T14:48:07;9.07;;;7.72;;
49840;SDS011;35738;49.890;5.930;2022-11-15T14:50:34;11.63;;;7.90;;
49840;SDS011;35738;49.890;5.930;2022-11-15T14:53:01;9.27;;;8.15;;
49840;SDS011;35738;49.890;5.930;2022-11-15T14:55:30;11.13;;;8.02;;
49840;SDS011;35738;49.890;5.930;2022-11-15T14:58:01;9.80;;;8.20;;
49840;SDS011;35738;49.890;5.930;2022-11-15T15:00:32;9.38;;;8.30;;
49840;SDS011;35738;49.890;5.930;2022-11-15T15:03:01;9.18;;;8.20;;
49840;SDS011;35738;49.890;5.930;2022-11-15T15:05:30;7.93;;;7.13;;
49840;SDS011;35738;49.890;5.930;2022-11-15T15:07:57;8.15;;;7.35;;
49840;SDS011;35738;49.890;5.930;2022-11-15T15:10:24;10.70;;;7.85;;
49840;SDS011;35738;49.890;5.930;2022-11-15T15:13:16;9.75;;;7.60;;
49840;SDS011;35738;49.890;5.930;2022-11-15T15:15:48;8.80;;;7.93;;
49840;SDS011;35738;49.890;5.930;2022-11-15T15:18:16;8.73;;;7.82;;
49840;SDS011;35738;49.890;5.930;2022-11-15T15:20:43;8.80;;;7.93;;
49840;SDS011;35738;49.890;5.930;2022-11-15T15:23:18;10.38;;;8.50;;
49840;SDS011;35738;49.890;5.930;2022-11-15T15:25:46;9.55;;;7.95;;
49840;SDS011;35738;49.890;5.930;2022-11-15T15:28:15;8.95;;;7.40;;
49840;SDS011;35738;49.890;5.930;2022-11-15T15:30:42;8.48;;;7.30;;
49840;SDS011;35738;49.890;5.930;2022-11-15T15:33:08;8.75;;;7.13;;
49840;SDS011;35738;49.890;5.930;2022-11-15T15:35:35;8.52;;;7.45;;
49840;SDS011;35738;49.890;5.930;2022-11-15T15:38:02;9.07;;;7.50;;
49840;SDS011;35738;49.890;5.930;2022-11-15T15:40:29;8.85;;;7.25;;
49840;SDS011;35738;49.890;5.930;2022-11-15T15:42:58;8.95;;;7.70;;
49840;SDS011;35738;49.890;5.930;2022-11-15T15:45:25;8.73;;;6.63;;
49840;SDS011;35738;49.890;5.930;2022-11-15T15:47:53;8.43;;;6.80;;
49840;SDS011;35738;49.890;5.930;2022-11-15T15:50:27;7.65;;;6.85;;
49840;SDS011;35738;49.890;5.930;2022-11-15T15:52:56;8.85;;;7.70;;
49840;SDS011;35738;49.890;5.930;2022-11-15T15:55:24;10.45;;;7.55;;
49840;SDS011;35738;49.890;5.930;2022-11-15T15:57:52;9.48;;;7.78;;
49840;SDS011;35738;49.890;5.930;2022-11-15T16:00:19;9.88;;;8.07;;
49840;SDS011;35738;49.890;5.930;2022-11-15T16:02:47;9.45;;;8.45;;
49840;SDS011;35738;49.890;5.930;2022-11-15T16:05:14;8.73;;;7.82;;
49840;SDS011;35738;49.890;5.930;2022-11-15T16:07:40;9.13;;;8.10;;
49840;SDS011;35738;49.890;5.930;2022-11-15T16:10:14;10.10;;;7.75;;
49840;SDS011;35738;49.890;5.930;2022-11-15T16:12:45;12.15;;;8.43;;
49840;SDS011;35738;49.890;5.930;2022-11-15T16:15:12;15.45;;;8.23;;
49840;SDS011;35738;49.890;5.930;2022-11-15T16:17:49;9.75;;;8.32;;
49840;SDS011;35738;49.890;5.930;2022-11-15T16:20:37;10.27;;;8.48;;
49840;SDS011;35738;49.890;5.930;2022-11-15T16:23:11;10.98;;;8.88;;
49840;SDS011;35738;49.890;5.930;2022-11-15T16:25:41;11.77;;;8.70;;
49840;SDS011;35738;49.890;5.930;2022-11-15T16:30:47;11.32;;;9.25;;
49840;SDS011;35738;49.890;5.930;2022-11-15T16:33:21;13.48;;;9.30;;
49840;SDS011;35738;49.890;5.930;2022-11-15T16:35:48;11.70;;;9.85;;
49840;SDS011;35738;49.890;5.930;2022-11-15T16:38:15;11.73;;;9.45;;
49840;SDS011;35738;49.890;5.930;2022-11-15T16:40:42;13.23;;;10.05;;
49840;SDS011;35738;49.890;5.930;2022-11-15T16:43:09;13.98;;;9.40;;
49840;SDS011;35738;49.890;5.930;2022-11-15T16:45:36;11.10;;;8.93;;
49840;SDS011;35738;49.890;5.930;2022-11-15T16:48:03;14.38;;;9.23;;
49840;SDS011;35738;49.890;5.930;2022-11-15T16:50:32;12.45;;;9.23;;
49840;SDS011;35738;49.890;5.930;2022-11-15T16:53:05;16.20;;;9.85;;
49840;SDS011;35738;49.890;5.930;2022-11-15T16:55:32;14.02;;;10.20;;
49840;SDS011;35738;49.890;5.930;2022-11-15T16:57:59;13.38;;;10.68;;
49840;SDS011;35738;49.890;5.930;2022-11-15T17:00:27;13.38;;;9.93;;
49840;SDS011;35738;49.890;5.930;2022-11-15T17:02:54;16.10;;;9.75;;
49840;SDS011;35738;49.890;5.930;2022-11-15T17:05:21;12.45;;;9.55;;
49840;SDS011;35738;49.890;5.930;2022-11-15T17:07:49;14.15;;;9.63;;
49840;SDS011;35738;49.890;5.930;2022-11-15T17:10:20;13.73;;;9.80;;
49840;SDS011;35738;49.890;5.930;2022-11-15T17:12:48;14.15;;;10.75;;
49840;SDS011;35738;49.890;5.930;2022-11-15T17:15:15;13.25;;;10.18;;
49840;SDS011;35738;49.890;5.930;2022-11-15T17:17:42;12.50;;;9.38;;
49840;SDS011;35738;49.890;5.930;2022-11-15T17:20:13;13.15;;;9.50;;
49840;SDS011;35738;49.890;5.930;2022-11-15T17:22:41;13.15;;;9.35;;
49840;SDS011;35738;49.890;5.930;2022-11-15T17:25:08;12.98;;;9.88;;
49840;SDS011;35738;49.890;5.930;2022-11-15T17:27:35;13.43;;;9.57;;
49840;SDS011;35738;49.890;5.930;2022-11-15T17:30:02;14.65;;;10.95;;
49840;SDS011;35738;49.890;5.930;2022-11-15T17:32:29;13.23;;;9.95;;
49840;SDS011;35738;49.890;5.930;2022-11-15T17:34:56;12.70;;;9.80;;
49840;SDS011;35738;49.890;5.930;2022-11-15T17:37:22;15.82;;;10.35;;
49840;SDS011;35738;49.890;5.930;2022-11-15T17:39:49;14.57;;;10.35;;